Time;durP1;ratioP1;P1;durP2;ratioP2;P2;SDS_P1;SDS_P2;PMS_P1;PMS_P2;Temp;Humidity;BMP_temperature;BMP_pressure;BME280_temperature;BME280_humidity;BME280_pressure;Samples;Min_cycle;Max_cycle;Signal;HPM_P1;HPM_P2
2022/08/19 00:02:23;;;;;;;39.10;8.80;;;;;;;;;;5033383;28;20036;-84
2022/08/19 00:05:28;;;;;;;42.67;9.23;;;;;;;;;;5032983;28;20048;-85
2022/08/19 00:08:32;;;;;;;46.40;8.68;;;;;;;;;;5033195;28;20117;-85
2022/08/19 00:11:37;;;;;;;44.10;9.88;;;;;;;;;;5033046;28;20056;-85
2022/08/19 00:14:41;;;;;;;39.00;8.80;;;;;;;;;;5031975;28;20049;-84
2022/08/19 00:17:46;;;;;;;36.15;8.70;;;;;;;;;;5033019;28;20060;-85
2022/08/19 00:20:51;;;;;;;41.67;8.57;;;;;;;;;;5033122;28;20508;-85
2022/08/19 00:23:59;;;;;;;43.33;9.80;;;;;;;;;;5032497;28;20044;-85
2022/08/19 00:27:04;;;;;;;31.45;8.68;;;;;;;;;;5032777;28;20052;-85
2022/08/19 00:30:10;;;;;;;38.47;8.25;;;;;;;;;;5032495;28;20045;-85
2022/08/19 00:33:16;;;;;;;41.97;9.15;;;;;;;;;;5032907;28;20500;-82
2022/08/19 00:36:20;;;;;;;34.92;7.20;;;;;;;;;;5031602;28;20044;-83
2022/08/19 00:39:24;;;;;;;36.03;9.10;;;;;;;;;;5032803;28;20061;-85
2022/08/19 00:42:30;;;;;;;44.80;8.45;;;;;;;;;;5032667;28;20436;-85
2022/08/19 00:45:35;;;;;;;37.85;7.90;;;;;;;;;;5032355;28;20044;-84
2022/08/19 00:48:40;;;;;;;33.67;8.65;;;;;;;;;;5031641;28;20401;-84
2022/08/19 00:51:47;;;;;;;32.88;7.47;;;;;;;;;;5032021;28;20048;-85
2022/08/19 00:54:52;;;;;;;25.73;6.57;;;;;;;;;;5032315;28;20059;-84
2022/08/19 00:57:58;;;;;;;23.00;6.70;;;;;;;;;;5032098;28;20516;-83
2022/08/19 01:01:04;;;;;;;33.10;7.07;;;;;;;;;;5032306;28;20048;-84
2022/08/19 01:04:08;;;;;;;39.10;7.30;;;;;;;;;;5031841;28;20056;-84
2022/08/19 01:07:13;;;;;;;28.55;6.75;;;;;;;;;;5031888;28;20048;-83
2022/08/19 01:10:22;;;;;;;38.92;8.30;;;;;;;;;;5032221;28;20496;-84
2022/08/19 01:13:28;;;;;;;38.47;7.18;;;;;;;;;;5019737;28;20532;-84
2022/08/19 01:16:33;;;;;;;32.55;6.75;;;;;;;;;;5031975;28;20045;-84
2022/08/19 01:19:39;;;;;;;31.23;6.90;;;;;;;;;;5031869;28;20060;-83
2022/08/19 01:22:46;;;;;;;32.22;6.53;;;;;;;;;;5031869;28;20040;-83
2022/08/19 01:25:54;;;;;;;41.33;8.15;;;;;;;;;;5031214;28;20212;-85
2022/08/19 01:29:00;;;;;;;39.58;7.88;;;;;;;;;;5030880;28;20405;-81
2022/08/19 01:32:05;;;;;;;34.70;7.50;;;;;;;;;;5031511;28;20195;-83
2022/08/19 01:35:10;;;;;;;32.67;7.57;;;;;;;;;;5031588;28;20048;-84
2022/08/19 01:38:23;;;;;;;25.67;6.63;;;;;;;;;;5031317;28;20052;-85
2022/08/19 01:41:27;;;;;;;36.72;8.00;;;;;;;;;;5030676;28;20063;-84
2022/08/19 01:44:32;;;;;;;39.53;7.25;;;;;;;;;;5031498;28;20056;-83
2022/08/19 01:47:37;;;;;;;34.67;7.20;;;;;;;;;;5031693;28;20068;-85
2022/08/19 01:50:41;;;;;;;36.88;7.28;;;;;;;;;;5030620;28;20386;-83
2022/08/19 01:53:51;;;;;;;49.22;9.75;;;;;;;;;;5031246;28;20040;-81
2022/08/19 01:57:07;;;;;;;47.65;10.20;;;;;;;;;;5031249;28;20513;-82
2022/08/19 02:00:15;;;;;;;49.50;10.77;;;;;;;;;;5030444;28;20068;-83
2022/08/19 02:03:19;;;;;;;52.58;11.85;;;;;;;;;;5031045;28;20108;-83
2022/08/19 02:06:23;;;;;;;42.58;11.68;;;;;;;;;;5030895;28;20508;-83
2022/08/19 02:09:28;;;;;;;54.28;12.63;;;;;;;;;;5031301;28;20045;-82
2022/08/19 02:12:33;;;;;;;42.10;11.38;;;;;;;;;;5031298;28;20056;-83
2022/08/19 02:15:37;;;;;;;43.60;11.68;;;;;;;;;;5031453;28;20049;-83
2022/08/19 02:18:41;;;;;;;46.10;11.27;;;;;;;;;;5031073;28;20412;-82
2022/08/19 02:21:45;;;;;;;38.42;10.60;;;;;;;;;;5035035;28;20056;-84
2022/08/19 02:24:50;;;;;;;44.85;10.80;;;;;;;;;;5035513;28;20048;-84
2022/08/19 02:27:55;;;;;;;45.97;11.35;;;;;;;;;;5022918;28;20056;-84
2022/08/19 02:31:00;;;;;;;44.08;12.25;;;;;;;;;;5034735;28;20045;-83
2022/08/19 02:34:05;;;;;;;44.35;10.82;;;;;;;;;;5033586;28;20202;-84
2022/08/19 02:38:24;;;;;;;78.00;16.08;;;;;;;;;;5034100;28;20060;-82
2022/08/19 02:40:36;;;;;;;50.95;13.07;;;;;;;;;;5034825;28;20048;-86
2022/08/19 02:43:40;;;;;;;53.55;13.20;;;;;;;;;;5034722;28;20048;-85
2022/08/19 02:46:46;;;;;;;58.75;12.75;;;;;;;;;;5034796;28;20045;-84
2022/08/19 02:49:51;;;;;;;50.38;12.50;;;;;;;;;;5022378;28;20504;-86
2022/08/19 02:52:55;;;;;;;55.13;12.88;;;;;;;;;;5034654;28;20041;-85
2022/08/19 02:55:59;;;;;;;51.88;12.15;;;;;;;;;;5033556;28;20052;-85
2022/08/19 02:59:09;;;;;;;51.95;12.95;;;;;;;;;;5033969;28;20052;-85
2022/08/19 03:02:15;;;;;;;46.80;12.63;;;;;;;;;;5033392;28;20117;-84
2022/08/19 03:05:20;;;;;;;55.22;12.10;;;;;;;;;;5034398;28;20048;-84
2022/08/19 03:08:25;;;;;;;50.70;12.40;;;;;;;;;;5033594;28;20048;-84
2022/08/19 03:11:31;;;;;;;44.88;11.55;;;;;;;;;;5034078;28;20049;-84
2022/08/19 03:14:35;;;;;;;45.60;12.80;;;;;;;;;;5033070;28;20048;-82
2022/08/19 03:17:40;;;;;;;45.55;11.25;;;;;;;;;;5034034;28;20492;-83
2022/08/19 03:20:49;;;;;;;42.83;11.70;;;;;;;;;;5034436;28;20048;-83
2022/08/19 03:23:57;;;;;;;45.58;11.93;;;;;;;;;;5033995;28;20048;-83
2022/08/19 03:27:04;;;;;;;37.92;12.52;;;;;;;;;;5034042;28;20052;-83
2022/08/19 03:30:10;;;;;;;47.50;12.02;;;;;;;;;;5033749;28;20049;-81
2022/08/19 03:33:14;;;;;;;56.83;12.32;;;;;;;;;;5033239;28;20040;-81
2022/08/19 03:36:22;;;;;;;47.30;12.55;;;;;;;;;;5033358;28;20041;-83
2022/08/19 03:39:27;;;;;;;47.10;11.38;;;;;;;;;;5021302;28;20220;-82
2022/08/19 03:42:31;;;;;;;45.88;12.43;;;;;;;;;;5033844;28;20044;-82
2022/08/19 03:45:36;;;;;;;41.35;10.73;;;;;;;;;;5033709;28;20052;-83
2022/08/19 03:48:41;;;;;;;41.95;11.65;;;;;;;;;;5032593;28;20041;-82
2022/08/19 03:51:47;;;;;;;45.10;11.90;;;;;;;;;;5033263;28;20048;-82
2022/08/19 03:54:52;;;;;;;54.00;12.07;;;;;;;;;;5033239;28;20036;-81
2022/08/19 03:57:57;;;;;;;65.75;14.00;;;;;;;;;;5034201;28;20048;-86
2022/08/19 04:01:01;;;;;;;52.22;15.75;;;;;;;;;;5021719;28;20049;-87
2022/08/19 04:04:06;;;;;;;42.97;13.00;;;;;;;;;;5032218;28;20037;-86
2022/08/19 04:07:12;;;;;;;41.45;12.43;;;;;;;;;;5032414;28;20044;-85
2022/08/19 04:10:17;;;;;;;57.20;15.35;;;;;;;;;;5033217;28;20048;-83
2022/08/19 04:13:21;;;;;;;68.32;16.25;;;;;;;;;;5032920;28;20044;-89
2022/08/19 04:16:28;;;;;;;52.65;14.52;;;;;;;;;;5031903;28;20052;-81
2022/08/19 04:19:33;;;;;;;51.50;14.32;;;;;;;;;;5031740;28;20076;-83
2022/08/19 04:22:38;;;;;;;48.95;15.55;;;;;;;;;;5032549;28;20044;-81
2022/08/19 04:25:44;;;;;;;46.33;13.98;;;;;;;;;;5032182;28;20056;-83
2022/08/19 04:28:48;;;;;;;41.90;12.57;;;;;;;;;;5032362;28;20113;-84
2022/08/19 04:31:54;;;;;;;43.05;13.85;;;;;;;;;;5032344;28;20044;-80
2022/08/19 04:34:58;;;;;;;41.58;11.23;;;;;;;;;;5031262;28;20041;-81
2022/08/19 04:38:04;;;;;;;41.47;12.68;;;;;;;;;;5032371;28;20104;-81
2022/08/19 04:44:32;;;;;;;37.30;11.45;;;;;;;;;;5031973;28;20040;-83
2022/08/19 04:47:37;;;;;;;37.95;10.48;;;;;;;;;;5031134;28;20385;-83
2022/08/19 04:50:42;;;;;;;38.72;9.95;;;;;;;;;;5032028;28;20044;-84
2022/08/19 04:53:47;;;;;;;37.72;10.70;;;;;;;;;;5031788;28;20048;-83
2022/08/19 04:56:53;;;;;;;44.25;11.65;;;;;;;;;;5031739;28;20036;-84
2022/08/19 04:59:57;;;;;;;43.65;11.52;;;;;;;;;;5031478;28;20063;-84
2022/08/19 05:03:02;;;;;;;40.40;11.80;;;;;;;;;;5019528;28;20041;-84
2022/08/19 05:06:07;;;;;;;42.88;11.48;;;;;;;;;;5031124;28;20052;-84
2022/08/19 05:09:11;;;;;;;30.13;10.63;;;;;;;;;;5031686;28;20532;-84
2022/08/19 05:12:15;;;;;;;33.85;10.45;;;;;;;;;;5030932;28;20056;-84
2022/08/19 05:15:20;;;;;;;34.47;11.15;;;;;;;;;;5031702;28;20044;-85
2022/08/19 05:25:18;;;;;;;46.17;10.95;;;;;;;;;;5031257;28;20048;-85
2022/08/19 05:28:22;;;;;;;41.58;10.32;;;;;;;;;;5031455;28;20044;-85
2022/08/19 05:31:26;;;;;;;44.20;10.98;;;;;;;;;;5031366;28;20044;-84
2022/08/19 05:34:32;;;;;;;33.58;9.90;;;;;;;;;;5031229;28;20516;-85
2022/08/19 05:37:39;;;;;;;33.63;10.02;;;;;;;;;;5030581;28;20048;-85
2022/08/19 05:40:47;;;;;;;40.10;10.48;;;;;;;;;;5031283;28;20052;-85
2022/08/19 05:43:52;;;;;;;35.17;10.32;;;;;;;;;;5030686;28;20405;-85
2022/08/19 05:46:57;;;;;;;31.13;9.88;;;;;;;;;;5031487;28;20048;-85
2022/08/19 05:50:02;;;;;;;34.13;9.73;;;;;;;;;;5030344;28;20287;-85
2022/08/19 05:53:06;;;;;;;34.38;10.88;;;;;;;;;;5031169;28;20044;-85
2022/08/19 05:56:12;;;;;;;41.95;10.43;;;;;;;;;;5030610;28;20044;-86
2022/08/19 05:59:17;;;;;;;43.08;10.88;;;;;;;;;;5031099;28;20056;-85
2022/08/19 06:02:22;;;;;;;37.65;10.13;;;;;;;;;;5018976;28;20511;-86
2022/08/19 06:05:26;;;;;;;34.33;9.82;;;;;;;;;;5018896;28;20052;-87
2022/08/19 06:08:30;;;;;;;40.95;9.73;;;;;;;;;;5030806;28;20048;-87
2022/08/19 06:11:37;;;;;;;33.42;9.15;;;;;;;;;;5029825;28;20064;-86
2022/08/19 06:14:41;;;;;;;39.25;10.98;;;;;;;;;;5029884;28;20045;-86
2022/08/19 06:17:46;;;;;;;39.08;11.30;;;;;;;;;;5031029;28;20401;-86
2022/08/19 06:20:50;;;;;;;30.17;8.18;;;;;;;;;;5030205;28;20050;-86
2022/08/19 06:23:56;;;;;;;42.88;9.88;;;;;;;;;;5029916;28;20535;-85
2022/08/19 06:27:00;;;;;;;40.17;10.85;;;;;;;;;;5029817;28;20057;-83
2022/08/19 06:30:05;;;;;;;39.28;9.75;;;;;;;;;;5030710;28;20049;-85
2022/08/19 06:33:12;;;;;;;43.08;8.27;;;;;;;;;;5018894;28;20037;-84
2022/08/19 06:36:31;;;;;;;27.52;6.30;;;;;;;;;;5029883;28;20056;-87
2022/08/19 06:39:38;;;;;;;27.75;5.43;;;;;;;;;;5030650;28;20060;-85
2022/08/19 06:42:42;;;;;;;28.40;5.30;;;;;;;;;;5030297;28;20311;-84
2022/08/19 06:45:47;;;;;;;29.27;5.88;;;;;;;;;;5029999;28;20049;-83
2022/08/19 06:48:53;;;;;;;24.15;5.47;;;;;;;;;;5030493;28;20045;-84
2022/08/19 06:51:59;;;;;;;20.75;4.65;;;;;;;;;;5030601;28;20478;-84
2022/08/19 06:55:04;;;;;;;24.85;4.88;;;;;;;;;;5030516;28;20060;-81
2022/08/19 06:58:09;;;;;;;27.17;5.28;;;;;;;;;;5031378;28;20044;-82
2022/08/19 07:01:13;;;;;;;23.35;4.53;;;;;;;;;;5032515;28;20385;-82
2022/08/19 07:04:21;;;;;;;23.13;4.55;;;;;;;;;;5031448;28;20035;-82
2022/08/19 07:07:26;;;;;;;18.83;3.88;;;;;;;;;;5033360;28;20044;-82
2022/08/19 07:10:32;;;;;;;15.27;4.00;;;;;;;;;;5033976;28;20056;-82
2022/08/19 07:13:37;;;;;;;27.50;4.75;;;;;;;;;;5033865;28;20044;-81
2022/08/19 07:16:41;;;;;;;17.38;4.10;;;;;;;;;;5034029;28;20044;-82
2022/08/19 07:19:46;;;;;;;14.75;3.75;;;;;;;;;;5032756;28;20052;-79
2022/08/19 07:22:53;;;;;;;20.15;3.97;;;;;;;;;;5021157;28;20044;-79
2022/08/19 07:25:57;;;;;;;19.48;4.00;;;;;;;;;;5032605;28;20060;-80
2022/08/19 07:29:02;;;;;;;23.00;4.47;;;;;;;;;;5032590;28;20040;-80
2022/08/19 07:32:08;;;;;;;13.93;3.35;;;;;;;;;;5033736;28;20385;-78
2022/08/19 07:35:13;;;;;;;25.75;5.57;;;;;;;;;;5032937;28;20036;-77
2022/08/19 07:38:17;;;;;;;18.45;3.95;;;;;;;;;;5033557;28;20496;-77
2022/08/19 07:41:23;;;;;;;20.10;4.95;;;;;;;;;;5033201;28;20052;-77
2022/08/19 07:44:27;;;;;;;23.30;4.75;;;;;;;;;;5020800;28;20051;-75
2022/08/19 07:47:31;;;;;;;19.45;5.60;;;;;;;;;;5033477;28;20045;-76
2022/08/19 07:50:38;;;;;;;13.23;4.28;;;;;;;;;;5032823;28;20040;-76
2022/08/19 07:53:44;;;;;;;19.00;4.88;;;;;;;;;;5020760;28;20052;-76
2022/08/19 07:56:50;;;;;;;20.95;4.53;;;;;;;;;;5032785;28;20052;-73
2022/08/19 07:59:54;;;;;;;14.38;3.95;;;;;;;;;;5032867;28;20445;-73
2022/08/19 08:02:59;;;;;;;20.77;4.75;;;;;;;;;;5032348;28;20373;-74
2022/08/19 08:09:29;;;;;;;16.33;4.95;;;;;;;;;;5033124;28;20041;-73
2022/08/19 08:12:40;;;;;;;25.15;5.18;;;;;;;;;;5033090;28;20393;-73
2022/08/19 08:15:45;;;;;;;19.38;4.93;;;;;;;;;;5032949;28;20053;-73
2022/08/19 08:18:50;;;;;;;17.98;4.75;;;;;;;;;;5031824;28;20077;-73
2022/08/19 08:21:55;;;;;;;24.45;5.72;;;;;;;;;;5033061;28;20044;-73
2022/08/19 08:25:07;;;;;;;16.00;4.57;;;;;;;;;;5032872;28;20500;-73
2022/08/19 08:28:14;;;;;;;19.35;4.43;;;;;;;;;;5032372;28;20392;-72
2022/08/19 08:31:18;;;;;;;13.75;3.75;;;;;;;;;;5031877;28;20048;-73
2022/08/19 08:34:22;;;;;;;12.15;3.47;;;;;;;;;;5032386;28;20067;-73
2022/08/19 08:37:27;;;;;;;14.85;3.55;;;;;;;;;;5031952;28;20536;-72
2022/08/19 08:40:45;;;;;;;9.60;3.08;;;;;;;;;;5031459;28;20060;-73
2022/08/19 08:43:52;;;;;;;13.68;4.00;;;;;;;;;;5032211;28;20037;-72
2022/08/19 08:46:58;;;;;;;11.30;4.03;;;;;;;;;;5031951;28;20503;-74
2022/08/19 08:50:06;;;;;;;17.85;4.18;;;;;;;;;;5032450;28;20044;-73
2022/08/19 08:53:12;;;;;;;11.10;3.15;;;;;;;;;;5031654;28;20397;-72
2022/08/19 08:56:17;;;;;;;17.88;3.25;;;;;;;;;;5031981;28;20052;-72
2022/08/19 08:59:21;;;;;;;19.83;9.25;;;;;;;;;;5031658;28;20052;-72
2022/08/19 09:02:26;;;;;;;10.95;4.30;;;;;;;;;;5031907;28;20052;-72
2022/08/19 09:05:36;;;;;;;7.28;2.80;;;;;;;;;;5031045;28;20045;-72
2022/08/19 09:08:46;;;;;;;11.03;3.53;;;;;;;;;;5030893;28;20041;-73
2022/08/19 09:11:56;;;;;;;7.60;3.30;;;;;;;;;;5031472;28;20048;-73
2022/08/19 09:15:04;;;;;;;8.57;2.90;;;;;;;;;;5030961;28;20052;-73
2022/08/19 09:18:09;;;;;;;10.25;3.33;;;;;;;;;;5031534;28;20370;-73
2022/08/19 09:21:13;;;;;;;20.08;3.78;;;;;;;;;;5031368;28;20046;-73
2022/08/19 09:24:17;;;;;;;8.15;2.63;;;;;;;;;;5030367;28;20048;-73
2022/08/19 09:27:23;;;;;;;10.88;3.20;;;;;;;;;;5030505;28;20037;-72
2022/08/19 09:30:29;;;;;;;15.52;3.55;;;;;;;;;;5031130;28;20049;-73
2022/08/19 09:33:33;;;;;;;7.05;2.63;;;;;;;;;;5030962;28;20052;-73
2022/08/19 09:36:38;;;;;;;14.10;3.58;;;;;;;;;;5031628;28;20041;-73
2022/08/19 09:39:43;;;;;;;19.10;3.90;;;;;;;;;;5031097;28;20060;-71
2022/08/19 09:42:48;;;;;;;15.75;3.75;;;;;;;;;;5030952;28;20048;-71
2022/08/19 09:45:53;;;;;;;13.60;3.50;;;;;;;;;;5030971;28;20045;-71
2022/08/19 09:49:00;;;;;;;13.93;3.35;;;;;;;;;;5031318;28;20052;-72
2022/08/19 09:52:05;;;;;;;9.77;3.30;;;;;;;;;;5031033;28;20044;-71
2022/08/19 09:55:10;;;;;;;11.05;2.67;;;;;;;;;;5031492;28;20046;-72
2022/08/19 09:58:14;;;;;;;13.45;2.72;;;;;;;;;;5030955;28;20429;-71
2022/08/19 10:01:20;;;;;;;10.43;2.42;;;;;;;;;;5030021;28;20440;-72
2022/08/19 10:05:47;;;;;;;11.13;2.47;;;;;;;;;;5030000;28;20393;-71
2022/08/19 10:07:50;;;;;;;7.47;2.17;;;;;;;;;;5031140;28;20500;-72
2022/08/19 10:10:55;;;;;;;13.88;2.78;;;;;;;;;;5030953;28;20041;-71
2022/08/19 10:13:59;;;;;;;13.07;2.83;;;;;;;;;;5030280;28;20053;-70
2022/08/19 10:17:04;;;;;;;7.47;2.50;;;;;;;;;;5030747;28;20048;-70
2022/08/19 10:20:09;;;;;;;11.45;2.88;;;;;;;;;;5030539;28;20049;-74
2022/08/19 10:23:14;;;;;;;6.40;2.53;;;;;;;;;;5029945;28;20045;-75
2022/08/19 10:26:21;;;;;;;9.07;2.70;;;;;;;;;;5029440;28;20050;-71
2022/08/19 10:29:27;;;;;;;10.85;2.80;;;;;;;;;;5030132;28;20030;-72
2022/08/19 10:32:32;;;;;;;13.32;3.10;;;;;;;;;;5030101;28;20048;-75
2022/08/19 10:35:37;;;;;;;8.65;2.55;;;;;;;;;;5030377;28;20389;-76
2022/08/19 10:38:42;;;;;;;11.80;3.20;;;;;;;;;;5030321;28;20041;-75
2022/08/19 10:41:46;;;;;;;9.68;2.53;;;;;;;;;;5032785;28;20060;-77
2022/08/19 10:44:51;;;;;;;8.02;2.35;;;;;;;;;;5034085;28;20366;-75
2022/08/19 10:47:55;;;;;;;14.40;2.90;;;;;;;;;;5033688;28;20037;-79
2022/08/19 10:54:22;;;;;;;9.25;2.47;;;;;;;;;;5033851;28;20029;-70
2022/08/19 10:57:30;;;;;;;10.13;2.65;;;;;;;;;;5034311;28;20041;-68
2022/08/19 11:00:35;;;;;;;11.82;3.13;;;;;;;;;;5034147;28;20520;-67
2022/08/19 11:03:39;;;;;;;5.88;2.25;;;;;;;;;;5034053;28;20048;-71
2022/08/19 11:06:56;;;;;;;7.32;2.28;;;;;;;;;;5033915;28;20041;-70
2022/08/19 11:10:02;;;;;;;7.65;2.35;;;;;;;;;;5033840;28;20042;-70
2022/08/19 11:13:07;;;;;;;9.70;2.40;;;;;;;;;;5034211;28;20045;-70
2022/08/19 11:16:19;;;;;;;9.77;2.15;;;;;;;;;;5033934;28;20037;-70
2022/08/19 11:19:23;;;;;;;7.07;2.30;;;;;;;;;;5033950;28;20088;-70
2022/08/19 11:22:27;;;;;;;8.32;2.58;;;;;;;;;;5032494;28;20041;-70
2022/08/19 11:25:33;;;;;;;9.95;2.78;;;;;;;;;;5033830;28;20045;-70
2022/08/19 11:28:38;;;;;;;5.55;2.17;;;;;;;;;;5033543;28;20029;-70
2022/08/19 11:31:43;;;;;;;8.63;2.72;;;;;;;;;;5033628;28;20362;-70
2022/08/19 11:34:48;;;;;;;8.60;2.45;;;;;;;;;;5033286;28;20033;-70
2022/08/19 11:37:52;;;;;;;11.10;2.60;;;;;;;;;;5032469;28;20037;-70
2022/08/19 11:41:01;;;;;;;6.00;2.05;;;;;;;;;;5033587;28;20591;-70
2022/08/19 11:44:10;;;;;;;9.68;2.65;;;;;;;;;;5032427;28;20033;-70
2022/08/19 11:47:14;;;;;;;12.95;3.00;;;;;;;;;;5033509;28;20185;-70
2022/08/19 11:50:18;;;;;;;7.25;2.53;;;;;;;;;;5031853;28;20041;-70
2022/08/19 11:53:23;;;;;;;4.80;1.90;;;;;;;;;;5032232;28;20045;-70
2022/08/19 11:56:28;;;;;;;3.28;1.67;;;;;;;;;;5033343;28;20033;-70
2022/08/19 11:59:32;;;;;;;5.28;2.38;;;;;;;;;;5033068;28;20049;-70
2022/08/19 12:02:37;;;;;;;7.65;2.00;;;;;;;;;;5032953;28;20033;-70
2022/08/19 12:05:42;;;;;;;4.82;1.88;;;;;;;;;;5032107;28;20422;-70
2022/08/19 12:08:47;;;;;;;6.28;2.17;;;;;;;;;;5033068;28;20049;-70
2022/08/19 12:11:51;;;;;;;5.53;1.95;;;;;;;;;;5032827;28;20038;-70
2022/08/19 12:14:57;;;;;;;5.43;2.40;;;;;;;;;;5031903;28;20045;-70
2022/08/19 12:18:01;;;;;;;5.53;1.85;;;;;;;;;;5032630;28;20037;-70
2022/08/19 12:21:06;;;;;;;7.60;2.28;;;;;;;;;;5032526;28;20041;-69
2022/08/19 12:24:11;;;;;;;6.50;2.00;;;;;;;;;;5032280;28;20041;-70
2022/08/19 12:27:15;;;;;;;5.75;1.77;;;;;;;;;;5031657;28;20489;-70
2022/08/19 12:30:20;;;;;;;8.15;1.63;;;;;;;;;;5032654;28;20370;-70
2022/08/19 12:33:27;;;;;;;6.25;2.10;;;;;;;;;;5032433;28;20473;-70
2022/08/19 12:36:31;;;;;;;5.47;2.00;;;;;;;;;;5032426;28;20034;-69
2022/08/19 12:39:37;;;;;;;4.75;2.05;;;;;;;;;;5032187;28;20049;-70
2022/08/19 12:42:42;;;;;;;8.45;2.22;;;;;;;;;;5032284;28;20041;-70
2022/08/19 12:45:46;;;;;;;6.13;2.10;;;;;;;;;;5032183;28;20033;-70
2022/08/19 12:48:52;;;;;;;8.43;2.67;;;;;;;;;;5032458;28;20033;-70
2022/08/19 12:51:57;;;;;;;9.70;2.22;;;;;;;;;;5032139;28;20371;-70
2022/08/19 12:55:01;;;;;;;5.25;2.30;;;;;;;;;;5031773;28;20033;-70
2022/08/19 12:58:08;;;;;;;4.30;2.00;;;;;;;;;;5031935;28;20033;-70
2022/08/19 13:01:13;;;;;;;7.65;2.28;;;;;;;;;;5031833;28;20045;-69
2022/08/19 13:04:18;;;;;;;6.90;2.15;;;;;;;;;;5030510;28;20041;-70
2022/08/19 13:07:22;;;;;;;6.45;2.38;;;;;;;;;;5031900;28;20038;-70
2022/08/19 13:10:28;;;;;;;4.25;2.13;;;;;;;;;;5031698;28;20041;-70
2022/08/19 13:13:32;;;;;;;7.03;2.20;;;;;;;;;;5030701;28;20049;-70
2022/08/19 13:16:37;;;;;;;5.28;2.10;;;;;;;;;;5031283;28;20493;-70
2022/08/19 13:19:41;;;;;;;6.65;2.20;;;;;;;;;;5030257;28;20049;-69
2022/08/19 13:22:47;;;;;;;3.65;2.10;;;;;;;;;;5031423;28;20362;-70
2022/08/19 13:26:02;;;;;;;11.32;3.08;;;;;;;;;;5031470;28;20045;-70
2022/08/19 13:35:57;;;;;;;4.38;2.22;;;;;;;;;;5031163;28;20033;-70
2022/08/19 13:39:02;;;;;;;7.00;2.40;;;;;;;;;;5030312;28;20045;-70
2022/08/19 13:42:07;;;;;;;9.48;2.03;;;;;;;;;;5031348;28;20381;-70
2022/08/19 13:45:12;;;;;;;7.30;2.35;;;;;;;;;;5031329;28;20489;-70
2022/08/19 13:48:18;;;;;;;6.97;1.85;;;;;;;;;;5031163;28;20517;-70
2022/08/19 13:51:22;;;;;;;7.95;2.75;;;;;;;;;;5030918;28;20042;-70
2022/08/19 13:54:29;;;;;;;7.40;2.10;;;;;;;;;;5031072;28;20375;-70
2022/08/19 13:57:35;;;;;;;6.22;2.40;;;;;;;;;;5030897;28;20057;-70
2022/08/19 14:00:40;;;;;;;7.05;2.88;;;;;;;;;;5030600;28;20049;-70
2022/08/19 14:03:44;;;;;;;7.15;2.65;;;;;;;;;;5030569;28;20497;-69
2022/08/19 14:06:49;;;;;;;7.82;2.50;;;;;;;;;;5030724;28;20046;-70
2022/08/19 14:09:53;;;;;;;8.43;2.60;;;;;;;;;;5030591;28;20038;-70
2022/08/19 14:13:00;;;;;;;5.82;2.15;;;;;;;;;;5030817;28;20049;-70
2022/08/19 14:16:09;;;;;;;9.60;2.42;;;;;;;;;;5030273;28;20041;-70
2022/08/19 14:19:13;;;;;;;5.70;2.42;;;;;;;;;;5030729;28;20034;-70
2022/08/19 14:22:18;;;;;;;7.97;2.22;;;;;;;;;;5030721;28;20054;-70
2022/08/19 14:25:24;;;;;;;8.25;2.30;;;;;;;;;;5018290;28;20034;-70
2022/08/19 14:28:28;;;;;;;8.88;2.70;;;;;;;;;;5030563;28;20041;-70
2022/08/19 14:31:32;;;;;;;6.43;2.35;;;;;;;;;;5030636;28;20366;-69
2022/08/19 14:34:37;;;;;;;7.85;2.13;;;;;;;;;;5030633;28;20030;-70
2022/08/19 14:37:42;;;;;;;8.65;2.53;;;;;;;;;;5030745;28;20498;-70
2022/08/19 14:40:46;;;;;;;9.70;2.33;;;;;;;;;;5030221;28;20053;-70
2022/08/19 14:43:51;;;;;;;5.80;2.47;;;;;;;;;;5030279;28;20141;-70
2022/08/19 14:46:56;;;;;;;8.38;2.97;;;;;;;;;;5030591;28;20034;-70
2022/08/19 14:50:00;;;;;;;12.88;3.20;;;;;;;;;;5030467;28;20037;-69
2022/08/19 14:53:06;;;;;;;10.63;2.58;;;;;;;;;;5030405;28;20048;-70
2022/08/19 14:56:14;;;;;;;5.18;2.60;;;;;;;;;;5030765;28;20064;-70
2022/08/19 14:59:19;;;;;;;5.90;2.38;;;;;;;;;;5030625;28;20049;-70
2022/08/19 15:02:23;;;;;;;8.55;2.70;;;;;;;;;;5030138;28;20410;-70
2022/08/19 15:05:28;;;;;;;10.43;3.22;;;;;;;;;;5029790;28;20137;-70
2022/08/19 15:08:33;;;;;;;13.63;3.05;;;;;;;;;;5030681;28;20401;-70
2022/08/19 15:11:38;;;;;;;8.85;2.90;;;;;;;;;;5030310;28;20120;-70
2022/08/19 15:14:44;;;;;;;11.82;3.38;;;;;;;;;;5030471;28;20042;-70
2022/08/19 15:17:49;;;;;;;8.75;2.58;;;;;;;;;;5030347;28;20417;-70
2022/08/19 15:20:53;;;;;;;7.80;2.95;;;;;;;;;;5029967;28;20049;-70
2022/08/19 15:23:58;;;;;;;13.02;2.67;;;;;;;;;;5029368;28;20280;-69
2022/08/19 15:27:04;;;;;;;7.25;2.90;;;;;;;;;;5030794;28;20056;-70
2022/08/19 15:30:09;;;;;;;6.70;2.40;;;;;;;;;;5032574;28;20222;-70
2022/08/19 15:33:15;;;;;;;10.15;2.95;;;;;;;;;;5033479;28;20030;-70
2022/08/19 15:36:19;;;;;;;9.90;3.08;;;;;;;;;;5032705;28;20041;-70
2022/08/19 15:39:23;;;;;;;8.13;2.70;;;;;;;;;;5032467;28;20033;-70
2022/08/19 15:42:28;;;;;;;8.00;2.47;;;;;;;;;;5032551;28;20064;-70
2022/08/19 15:45:32;;;;;;;10.00;2.95;;;;;;;;;;5032563;28;20030;-70
2022/08/19 15:48:37;;;;;;;7.95;2.70;;;;;;;;;;5033491;28;20516;-71
2022/08/19 15:51:42;;;;;;;9.95;3.35;;;;;;;;;;5033330;28;20045;-70
2022/08/19 15:54:47;;;;;;;7.22;3.05;;;;;;;;;;5032977;28;20033;-70
2022/08/19 16:07:54;;;;;;;7.53;3.05;;;;;;;;;;5032237;28;20048;-70
2022/08/19 16:10:59;;;;;;;8.43;2.88;;;;;;;;;;5032052;28;20037;-70
2022/08/19 16:14:03;;;;;;;12.85;2.92;;;;;;;;;;5032833;28;20038;-71
2022/08/19 16:17:10;;;;;;;11.00;2.83;;;;;;;;;;5032854;28;20045;-72
2022/08/19 16:20:15;;;;;;;10.20;3.05;;;;;;;;;;5032058;28;20056;-71
2022/08/19 16:23:20;;;;;;;16.67;3.67;;;;;;;;;;5031192;28;20044;-72
2022/08/19 16:26:25;;;;;;;10.38;3.30;;;;;;;;;;5031556;28;20080;-72
2022/08/19 16:29:29;;;;;;;14.18;3.10;;;;;;;;;;5032180;28;20508;-72
2022/08/19 16:32:34;;;;;;;12.20;3.05;;;;;;;;;;5032094;28;20036;-71
2022/08/19 16:35:38;;;;;;;10.55;3.40;;;;;;;;;;5032414;28;20044;-72
2022/08/19 16:38:46;;;;;;;14.77;3.50;;;;;;;;;;5031488;28;20041;-72
2022/08/19 16:41:51;;;;;;;12.52;3.50;;;;;;;;;;5032088;28;20528;-72
2022/08/19 16:44:56;;;;;;;9.50;3.30;;;;;;;;;;5031924;28;20048;-72
2022/08/19 16:48:00;;;;;;;10.30;2.88;;;;;;;;;;5031259;28;20037;-72
2022/08/19 16:51:08;;;;;;;7.97;3.15;;;;;;;;;;5032251;28;20060;-72
2022/08/19 16:54:12;;;;;;;9.30;2.97;;;;;;;;;;5030917;28;20173;-72
2022/08/19 16:57:18;;;;;;;13.10;3.38;;;;;;;;;;5031877;28;20037;-72
2022/08/19 17:00:22;;;;;;;14.07;5.22;;;;;;;;;;5031658;28;20060;-72
2022/08/19 17:03:26;;;;;;;9.57;2.78;;;;;;;;;;5031684;28;20040;-72
2022/08/19 17:06:30;;;;;;;12.63;3.38;;;;;;;;;;5031382;28;20038;-72
2022/08/19 17:09:35;;;;;;;9.38;2.90;;;;;;;;;;5031305;28;20404;-72
2022/08/19 17:12:40;;;;;;;15.10;3.42;;;;;;;;;;5031393;28;20026;-72
2022/08/19 17:15:44;;;;;;;16.13;3.80;;;;;;;;;;5031549;28;20045;-71
2022/08/19 17:18:51;;;;;;;9.77;3.20;;;;;;;;;;5031688;28;20040;-72
2022/08/19 17:21:56;;;;;;;6.43;2.55;;;;;;;;;;5031616;28;20057;-72
2022/08/19 17:25:00;;;;;;;17.92;3.65;;;;;;;;;;5031262;28;20258;-72
2022/08/19 17:28:09;;;;;;;11.20;3.22;;;;;;;;;;5018930;28;20057;-72
2022/08/19 17:31:14;;;;;;;16.48;3.72;;;;;;;;;;5031210;28;20041;-72
2022/08/19 17:34:19;;;;;;;13.30;3.47;;;;;;;;;;5031488;28;20052;-72
2022/08/19 17:37:24;;;;;;;12.05;3.20;;;;;;;;;;5031128;28;20045;-72
2022/08/19 17:40:28;;;;;;;10.15;2.90;;;;;;;;;;5031004;28;20060;-71
2022/08/19 17:43:34;;;;;;;11.93;3.15;;;;;;;;;;5031138;28;20041;-72
2022/08/19 17:46:38;;;;;;;14.55;3.40;;;;;;;;;;5031269;28;20044;-72
2022/08/19 17:49:43;;;;;;;11.48;3.35;;;;;;;;;;5030088;28;20048;-72
2022/08/19 17:52:49;;;;;;;12.05;3.47;;;;;;;;;;5030048;28;20056;-72
2022/08/19 17:55:54;;;;;;;14.80;3.20;;;;;;;;;;5027760;28;20044;-72
2022/08/19 17:58:58;;;;;;;14.30;3.65;;;;;;;;;;5028463;28;20053;-72
2022/08/19 18:02:07;;;;;;;15.50;3.78;;;;;;;;;;5028606;28;20053;-73
2022/08/19 18:05:12;;;;;;;10.60;3.22;;;;;;;;;;5028663;28;20393;-72
2022/08/19 18:08:16;;;;;;;12.32;3.22;;;;;;;;;;5028623;28;20044;-72
2022/08/19 18:11:20;;;;;;;14.25;3.03;;;;;;;;;;5028532;28;20048;-72
2022/08/19 18:14:28;;;;;;;11.60;3.15;;;;;;;;;;5029210;28;20401;-72
2022/08/19 18:17:33;;;;;;;13.23;3.25;;;;;;;;;;5028104;28;20048;-72
2022/08/19 18:20:37;;;;;;;11.25;3.00;;;;;;;;;;5029054;28;20052;-73
2022/08/19 18:23:42;;;;;;;11.93;3.22;;;;;;;;;;5028854;28;20044;-73
2022/08/19 18:26:47;;;;;;;19.52;3.15;;;;;;;;;;5030786;28;20149;-73
2022/08/19 18:29:53;;;;;;;12.57;3.85;;;;;;;;;;5030678;28;20053;-72
2022/08/19 18:32:58;;;;;;;10.82;3.17;;;;;;;;;;5030763;28;20041;-72
2022/08/19 18:36:03;;;;;;;12.68;3.15;;;;;;;;;;5029797;28;20044;-72
2022/08/19 18:49:19;;;;;;;15.88;3.05;;;;;;;;;;5030778;28;20041;-72
2022/08/19 18:52:25;;;;;;;12.55;3.80;;;;;;;;;;5029294;28;20044;-72
2022/08/19 18:55:30;;;;;;;12.18;4.45;;;;;;;;;;5030288;28;20108;-72
2022/08/19 18:58:35;;;;;;;17.30;3.88;;;;;;;;;;5029707;28;20044;-72
2022/08/19 19:01:49;;;;;;;8.30;2.97;;;;;;;;;;5031001;28;20050;-72